createdAt,value
2019-04-14T00:00:55.391Z,92.00
2019-04-14T00:01:54.742Z,91.47
2019-04-14T00:02:57.725Z,91.13
2019-04-14T00:03:56.496Z,91.17
2019-04-14T00:04:57.269Z,91.77
2019-04-14T00:05:58.340Z,92.07
2019-04-14T00:06:59.139Z,91.59
2019-04-14T00:08:00.326Z,92.05
2019-04-14T00:09:01.005Z,92.38
2019-04-14T00:10:00.787Z,92.23
2019-04-14T00:11:01.771Z,91.99
2019-04-14T00:12:04.716Z,91.38
2019-04-14T00:13:02.552Z,92.15
2019-04-14T00:14:03.183Z,92.42
2019-04-14T00:15:04.374Z,92.74
2019-04-14T00:16:05.239Z,92.60
2019-04-14T00:17:04.877Z,92.76
2019-04-14T00:17:13.436Z,93.06
2019-04-14T00:18:14.706Z,93.09
2019-04-14T00:19:15.420Z,93.54
2019-04-14T00:20:16.349Z,93.45
2019-04-14T00:21:17.254Z,93.46
2019-04-14T00:22:16.866Z,93.10
2019-04-14T00:23:19.473Z,92.70
2019-04-14T00:24:18.494Z,92.56
2019-04-14T00:25:19.509Z,92.09
2019-04-14T00:26:20.494Z,92.16
2019-04-14T00:27:21.458Z,92.22
2019-04-14T00:28:21.372Z,92.56
2019-04-14T00:29:23.869Z,92.12
2019-04-14T00:30:23.084Z,91.93
2019-04-14T00:31:23.956Z,91.99
2019-04-14T00:32:24.855Z,91.98
2019-04-14T00:33:25.911Z,91.97
2019-04-14T00:34:26.793Z,92.06
2019-04-14T00:35:27.712Z,92.06
2019-04-14T00:36:28.328Z,92.24
2019-04-14T00:37:27.474Z,92.52
2019-04-14T00:38:30.248Z,92.42
2019-04-14T00:39:29.430Z,92.31
2019-04-14T00:40:31.550Z,92.31
2019-04-14T00:41:40.306Z,92.45
2019-04-14T00:42:31.983Z,92.50
2019-04-14T00:43:33.029Z,92.44
2019-04-14T00:44:32.478Z,92.77
2019-04-14T00:45:41.591Z,93.03
2019-04-14T00:46:35.284Z,93.03
2019-04-14T00:47:35.403Z,92.57
2019-04-14T00:48:36.595Z,92.54
2019-04-14T00:49:37.541Z,92.80
2019-04-14T00:50:37.234Z,93.01
2019-04-14T00:51:40.813Z,93.11
2019-04-14T00:52:39.440Z,92.44
2019-04-14T00:53:40.280Z,92.29
2019-04-14T00:54:41.388Z,92.25
2019-04-14T00:55:42.195Z,92.41
2019-04-14T00:56:43.337Z,92.63
2019-04-14T00:57:44.142Z,92.69
2019-04-14T00:58:43.978Z,92.68
2019-04-14T00:59:46.385Z,92.88
2019-04-14T01:00:45.167Z,93.25
2019-04-14T01:01:45.914Z,93.43
2019-04-14T01:02:45.572Z,93.98
2019-04-14T01:03:48.282Z,94.08
2019-04-14T01:04:46.921Z,94.31
2019-04-14T01:05:48.154Z,94.21
2019-04-14T01:06:49.024Z,93.64
2019-04-14T01:07:50.035Z,93.64
2019-04-14T01:08:51.059Z,93.69
2019-04-14T01:09:51.041Z,93.31
2019-04-14T01:10:51.866Z,93.48
2019-04-14T01:11:51.282Z,93.45
2019-04-14T01:12:53.913Z,93.26
2019-04-14T01:13:53.063Z,92.95
2019-04-14T01:14:53.973Z,92.92
2019-04-14T01:16:00.591Z,92.83
2019-04-14T01:16:55.876Z,92.79
2019-04-14T01:17:57.154Z,93.07
2019-04-14T01:18:56.568Z,93.23
2019-04-14T01:19:59.264Z,93.28
2019-04-14T01:20:58.177Z,93.00
2019-04-14T01:21:59.241Z,93.13
2019-04-14T01:23:00.215Z,93.52
2019-04-14T01:24:01.121Z,94.37
2019-04-14T01:25:02.345Z,94.15
2019-04-14T01:26:00.910Z,93.74
2019-04-14T01:27:03.813Z,94.05
2019-04-14T01:28:02.532Z,94.22
2019-04-14T01:29:03.633Z,94.47
2019-04-14T01:30:04.563Z,94.59
2019-04-14T01:31:05.497Z,94.63
2019-04-14T01:32:06.504Z,94.44
2019-04-14T01:33:07.512Z,94.48
2019-04-14T01:34:06.936Z,94.71
2019-04-14T01:35:09.643Z,95.28
2019-04-14T01:36:08.601Z,95.95
2019-04-14T01:37:11.552Z,95.50
2019-04-14T01:38:10.368Z,95.50
2019-04-14T01:39:13.218Z,95.37
2019-04-14T01:40:12.135Z,95.08
2019-04-14T01:41:12.871Z,95.37
2019-04-14T01:42:13.810Z,95.39
2019-04-14T01:43:14.631Z,95.83
2019-04-14T01:44:15.610Z,96.11
2019-04-14T01:45:16.482Z,96.27
2019-04-14T01:46:21.693Z,96.00
2019-04-14T01:47:18.189Z,95.85
2019-04-14T01:48:19.242Z,96.27
2019-04-14T01:49:18.923Z,96.57
2019-04-14T01:50:21.191Z,96.20
2019-04-14T01:51:20.275Z,96.16
2019-04-14T01:52:20.989Z,96.35
2019-04-14T01:53:20.823Z,96.63
2019-04-14T01:54:21.454Z,96.54
2019-04-14T01:55:22.323Z,96.44
2019-04-14T01:56:22.986Z,96.67
2019-04-14T01:57:24.241Z,96.63
2019-04-14T01:58:25.039Z,96.65
2019-04-14T01:59:24.848Z,96.21
2019-04-14T02:00:26.938Z,96.14
2019-04-14T02:01:26.062Z,95.92
2019-04-14T02:02:27.003Z,96.09
2019-04-14T02:03:28.081Z,96.01
2019-04-14T02:04:28.830Z,96.14
2019-04-14T02:05:29.971Z,96.75
2019-04-14T02:06:30.998Z,96.94
2019-04-14T02:07:31.694Z,96.60
2019-04-14T02:08:31.347Z,96.38
2019-04-14T02:08:39.950Z,95.90
2019-04-14T02:09:42.526Z,95.88
2019-04-14T02:10:41.361Z,95.81
2019-04-14T02:11:44.434Z,96.20
2019-04-14T02:12:43.154Z,96.30
2019-04-14T02:13:44.246Z,96.39
2019-04-14T02:14:45.180Z,96.50
2019-04-14T02:15:46.486Z,96.96
2019-04-14T02:16:50.335Z,97.32
2019-04-14T02:17:46.112Z,97.13
2019-04-14T02:18:47.130Z,96.81
2019-04-14T02:19:48.108Z,97.24
2019-04-14T02:20:49.075Z,96.94
2019-04-14T02:21:49.928Z,96.55
2019-04-14T02:22:50.574Z,96.41
2019-04-14T02:23:50.289Z,96.23
2019-04-14T02:24:52.693Z,96.12
2019-04-14T02:25:51.442Z,95.67
2019-04-14T02:26:52.632Z,95.50
2019-04-14T02:27:53.631Z,95.78
2019-04-14T02:28:53.449Z,95.56
2019-04-14T02:29:55.937Z,95.61
2019-04-14T02:31:08.632Z,95.64
2019-04-14T02:32:29.998Z,95.92
2019-04-14T02:33:24.000Z,96.18
2019-04-14T02:34:25.916Z,96.26
2019-04-14T02:35:32.637Z,96.36
2019-04-14T02:37:26.633Z,96.83
2019-04-14T02:38:37.268Z,96.95
2019-04-14T02:39:31.740Z,96.98
2019-04-14T02:40:44.869Z,97.20
2019-04-14T02:41:46.828Z,97.28
2019-04-14T02:42:34.286Z,97.03
2019-04-14T02:43:37.701Z,96.51
2019-04-14T02:44:39.861Z,96.32
2019-04-14T02:45:35.099Z,96.71
2019-04-14T02:46:38.193Z,97.11
2019-04-14T02:48:53.296Z,96.72
2019-04-14T02:49:38.468Z,96.75
2019-04-14T02:50:30.539Z,96.88
2019-04-14T02:51:54.185Z,96.85
2019-04-14T02:52:35.432Z,96.72
2019-04-14T02:53:44.437Z,96.84
2019-04-14T02:54:43.580Z,97.14
2019-04-14T02:55:42.832Z,97.31
2019-04-14T02:56:41.112Z,97.73
2019-04-14T02:57:41.629Z,97.98
2019-04-14T02:58:50.037Z,98.21
2019-04-14T02:59:45.176Z,98.44
2019-04-14T03:00:41.178Z,98.53
2019-04-14T03:03:43.724Z,98.43
2019-04-14T03:04:45.335Z,98.63
2019-04-14T03:05:57.851Z,98.87
2019-04-14T03:06:50.404Z,98.91
2019-04-14T03:07:46.751Z,98.97
2019-04-14T03:08:52.016Z,99.14
2019-04-14T03:09:47.016Z,99.34
2019-04-14T03:10:51.828Z,99.62
2019-04-14T03:11:51.352Z,99.87
2019-04-14T03:12:55.244Z,100.07
2019-04-14T03:13:51.557Z,100.25
2019-04-14T03:14:53.734Z,100.32
2019-04-14T03:15:57.128Z,100.42
2019-04-14T03:17:10.807Z,100.42
2019-04-14T03:18:02.292Z,100.40
2019-04-14T03:18:57.730Z,100.58
2019-04-14T03:20:55.681Z,100.78
2019-04-14T03:22:05.084Z,100.89
2019-04-14T03:23:57.966Z,101.26
2019-04-14T03:24:42.275Z,101.36
2019-04-14T03:25:56.957Z,101.51
2019-04-14T03:27:07.954Z,101.38
2019-04-14T03:27:58.994Z,101.37
2019-04-14T03:28:59.017Z,101.66
2019-04-14T03:30:21.425Z,101.77
2019-04-14T03:31:34.567Z,101.78
2019-04-14T03:35:35.113Z,102.07
2019-04-14T03:37:31.117Z,102.02
2019-04-14T03:38:18.452Z,102.05
2019-04-14T03:39:07.497Z,102.12
2019-04-14T03:40:10.026Z,102.05
2019-04-14T03:41:19.703Z,101.94
2019-04-14T03:42:08.599Z,102.05
2019-04-14T03:43:27.625Z,102.38
2019-04-14T03:44:11.827Z,102.44
2019-04-14T03:45:14.317Z,102.52
2019-04-14T03:46:17.161Z,102.46
2019-04-14T03:47:19.494Z,102.50
2019-04-14T03:49:14.077Z,102.80
2019-04-14T03:50:17.267Z,102.89
2019-04-14T03:51:21.243Z,102.87
2019-04-14T03:53:22.982Z,102.91
2019-04-14T03:54:19.139Z,102.86
2019-04-14T03:55:12.775Z,102.87
2019-04-14T03:56:00.683Z,102.79
2019-04-14T03:56:55.823Z,102.85
2019-04-14T03:57:56.418Z,103.02
2019-04-14T03:58:57.693Z,103.11
2019-04-14T03:59:58.488Z,103.32
2019-04-14T04:00:59.670Z,103.50
2019-04-14T04:02:00.751Z,103.70
2019-04-14T04:03:00.356Z,103.69
2019-04-14T04:04:03.148Z,103.44
2019-04-14T04:05:02.199Z,102.93
2019-04-14T04:06:03.198Z,102.57
2019-04-14T04:07:03.861Z,102.32
2019-04-14T04:08:05.015Z,102.10
2019-04-14T04:09:06.149Z,102.07
2019-04-14T04:10:05.647Z,102.04
2019-04-14T04:11:08.323Z,102.06
2019-04-14T04:12:07.479Z,102.01
2019-04-14T04:13:08.337Z,101.72
2019-04-14T04:14:09.660Z,101.49
2019-04-14T04:15:10.488Z,101.40
2019-04-14T04:16:11.512Z,101.40
2019-04-14T04:17:12.240Z,101.45
2019-04-14T04:18:12.036Z,101.47
2019-04-14T04:19:15.587Z,101.50
2019-04-14T04:20:13.506Z,101.63
2019-04-14T04:21:16.254Z,101.85
2019-04-14T04:22:15.243Z,101.92
2019-04-14T04:23:18.081Z,101.95
2019-04-14T04:24:17.097Z,102.10
2019-04-14T04:25:18.224Z,102.22
2019-04-14T04:26:19.102Z,102.19
2019-04-14T04:27:20.045Z,102.21
2019-04-14T04:28:20.971Z,102.34
2019-04-14T04:29:22.256Z,102.40
2019-04-14T04:30:23.067Z,102.19
2019-04-14T04:31:22.751Z,102.01
2019-04-14T04:31:32.797Z,102.20
2019-04-14T04:32:32.664Z,102.21
2019-04-14T04:33:34.803Z,102.33
2019-04-14T04:34:34.035Z,102.43
2019-04-14T04:35:35.178Z,102.41
2019-04-14T04:36:35.929Z,102.56
2019-04-14T04:37:36.867Z,102.76
2019-04-14T04:38:37.529Z,102.88
2019-04-14T04:39:38.598Z,102.94
2019-04-14T04:40:38.063Z,102.93
2019-04-14T04:41:40.741Z,102.87
2019-04-14T04:42:39.775Z,102.86
2019-04-14T04:43:41.500Z,102.76
2019-04-14T04:44:42.238Z,103.05
2019-04-14T04:45:43.019Z,103.46
2019-04-14T04:46:43.828Z,103.43
2019-04-14T04:47:43.371Z,103.53
2019-04-14T04:48:57.967Z,103.71
2019-04-14T04:49:44.971Z,103.80
2019-04-14T04:50:47.644Z,103.71
2019-04-14T04:51:46.577Z,103.51
2019-04-14T04:52:47.551Z,103.42
2019-04-14T04:53:48.330Z,103.39
2019-04-14T04:54:49.540Z,103.51
2019-04-14T04:55:50.283Z,103.39
2019-04-14T04:56:49.849Z,103.62
2019-04-14T04:57:52.323Z,103.66
2019-04-14T04:58:50.780Z,103.74
2019-04-14T04:59:52.436Z,103.67
2019-04-14T05:00:54.947Z,103.57
2019-04-14T05:01:53.871Z,103.32
2019-04-14T05:02:54.935Z,103.06
2019-04-14T05:03:55.680Z,102.88
2019-04-14T05:04:55.265Z,102.86
2019-04-14T05:05:57.901Z,102.98
2019-04-14T05:06:57.173Z,103.10
2019-04-14T05:07:57.655Z,102.97
2019-04-14T05:08:59.391Z,103.00
2019-04-14T05:10:00.278Z,102.91
2019-04-14T05:11:01.041Z,102.91
2019-04-14T05:12:00.479Z,102.74
2019-04-14T05:13:02.952Z,102.52
2019-04-14T05:14:02.273Z,102.35
2019-04-14T05:15:03.553Z,102.14
2019-04-14T05:16:04.187Z,102.05
2019-04-14T05:17:05.731Z,102.00
2019-04-14T05:18:05.052Z,101.78
2019-04-14T05:19:17.225Z,101.72
2019-04-14T05:20:07.397Z,102.04
2019-04-14T05:21:08.169Z,101.96
2019-04-14T05:22:07.778Z,102.02
2019-04-14T05:23:10.234Z,101.99
2019-04-14T05:24:09.387Z,101.77
2019-04-14T05:25:10.162Z,101.45
2019-04-14T05:26:11.292Z,101.51
2019-04-14T05:27:12.358Z,101.61
2019-04-14T05:28:13.321Z,101.75
2019-04-14T05:29:12.969Z,101.72
2019-04-14T05:30:15.409Z,101.67
2019-04-14T05:31:14.371Z,101.84
2019-04-14T05:32:17.403Z,101.75
2019-04-14T05:33:16.284Z,101.66
2019-04-14T05:34:17.312Z,101.57
2019-04-14T05:35:18.414Z,101.54
2019-04-14T05:36:19.260Z,101.43
2019-04-14T05:37:20.283Z,101.73
2019-04-14T05:38:19.781Z,102.04
2019-04-14T05:39:22.038Z,102.38
2019-04-14T05:40:21.162Z,102.62
2019-04-14T05:41:22.828Z,102.83
2019-04-14T05:42:25.582Z,102.94
2019-04-14T05:43:36.010Z,103.26
2019-04-14T05:44:25.318Z,103.36
2019-04-14T05:45:24.839Z,103.39
2019-04-14T05:46:27.394Z,103.47
2019-04-14T05:47:26.352Z,103.58
2019-04-14T05:48:29.264Z,103.54
2019-04-14T05:49:35.462Z,103.47
2019-04-14T05:50:27.826Z,103.24
2019-04-14T05:51:30.542Z,103.11
2019-04-14T05:52:29.640Z,103.22
2019-04-14T05:53:30.532Z,103.12
2019-04-14T05:54:31.696Z,102.80
2019-04-14T05:55:32.679Z,102.74
2019-04-14T05:56:34.993Z,103.02
2019-04-14T05:57:32.771Z,102.83
2019-04-14T05:58:33.979Z,102.94
2019-04-14T05:59:35.238Z,102.60
2019-04-14T06:00:34.373Z,102.79
2019-04-14T06:01:36.563Z,103.10
2019-04-14T06:02:35.900Z,103.06
2019-04-14T06:02:44.461Z,102.73
2019-04-14T06:03:46.056Z,102.68
2019-04-14T06:04:48.157Z,102.94
2019-04-14T06:05:46.521Z,102.83
2019-04-14T06:06:48.396Z,102.76
2019-04-14T06:07:49.208Z,102.66
2019-04-14T06:08:48.908Z,102.93
2019-04-14T06:09:50.743Z,102.98
2019-04-14T06:10:50.517Z,102.93
2019-04-14T06:11:52.162Z,102.88
2019-04-14T06:12:53.074Z,102.87
2019-04-14T06:13:53.724Z,102.65
2019-04-14T06:14:54.375Z,102.66
2019-04-14T06:15:55.071Z,102.51
2019-04-14T06:16:55.899Z,102.67
2019-04-14T06:17:56.590Z,102.51
2019-04-14T06:18:57.249Z,102.20
2019-04-14T06:19:57.951Z,102.00
2019-04-14T06:20:58.777Z,101.93
2019-04-14T06:21:59.525Z,101.83
2019-04-14T06:23:00.173Z,101.73
2019-04-14T06:24:00.977Z,101.91
2019-04-14T06:25:01.615Z,101.90
2019-04-14T06:26:02.307Z,101.84
2019-04-14T06:27:02.937Z,101.79
2019-04-14T06:28:03.726Z,101.67
2019-04-14T06:29:04.490Z,101.39
2019-04-14T06:30:05.416Z,101.76
2019-04-14T06:31:08.851Z,101.82
2019-04-14T06:32:05.200Z,101.95
2019-04-14T06:33:06.872Z,102.59
2019-04-14T06:34:07.581Z,102.96
2019-04-14T06:35:08.429Z,103.14
2019-04-14T06:36:09.178Z,103.15
2019-04-14T06:37:09.856Z,103.28
2019-04-14T06:38:09.853Z,103.09
2019-04-14T06:39:10.605Z,102.89
2019-04-14T06:40:10.644Z,102.61
2019-04-14T06:41:11.402Z,102.14
2019-04-14T06:42:12.056Z,101.96
2019-04-14T06:43:12.144Z,101.99
2019-04-14T06:44:12.874Z,102.03
2019-04-14T06:45:13.641Z,101.74
2019-04-14T06:46:14.327Z,100.77
2019-04-14T06:47:15.041Z,100.47
2019-04-14T06:48:15.865Z,100.53
2019-04-14T06:49:16.545Z,100.16
2019-04-14T06:49:25.113Z,99.88
2019-04-14T06:50:26.826Z,99.87
2019-04-14T06:51:27.722Z,99.60
2019-04-14T06:52:28.398Z,98.87
2019-04-14T06:53:29.135Z,98.59
2019-04-14T06:54:29.847Z,97.41
2019-04-14T06:55:30.831Z,96.88
2019-04-14T06:56:31.655Z,95.97
2019-04-14T06:57:32.405Z,96.67
2019-04-14T06:58:33.102Z,94.54
2019-04-14T06:59:33.806Z,93.25
2019-04-14T07:00:34.549Z,91.93
2019-04-14T07:01:35.418Z,91.18
2019-04-14T07:02:36.204Z,91.01
2019-04-14T07:03:36.917Z,90.99
2019-04-14T07:04:37.635Z,90.76
2019-04-14T07:05:38.424Z,90.95
2019-04-14T07:06:39.173Z,91.37
2019-04-14T07:07:40.010Z,92.19
2019-04-14T07:08:40.857Z,92.22
2019-04-14T07:09:41.596Z,92.12
2019-04-14T07:10:42.345Z,92.33
2019-04-14T07:11:42.348Z,90.74
2019-04-14T07:12:43.589Z,90.03
2019-04-14T07:13:42.507Z,88.71
2019-04-14T07:14:44.494Z,89.13
2019-04-14T07:15:44.545Z,88.98
2019-04-14T07:16:44.855Z,88.67
2019-04-14T07:17:44.960Z,87.93
2019-04-14T07:18:44.854Z,86.22
2019-04-14T07:19:45.946Z,84.77
2019-04-14T07:20:46.976Z,84.79
2019-04-14T07:21:47.900Z,84.36
2019-04-14T07:22:48.722Z,83.37
2019-04-14T07:23:47.776Z,84.25
2019-04-14T07:24:49.587Z,82.34
2019-04-14T07:25:50.421Z,82.27
2019-04-14T07:26:50.626Z,80.88
2019-04-14T07:27:50.997Z,80.58
2019-04-14T07:28:56.952Z,80.03
2019-04-14T07:29:51.226Z,78.30
2019-04-14T07:30:52.303Z,77.17
2019-04-14T07:31:53.265Z,75.10
2019-04-14T07:32:53.356Z,74.52
2019-04-14T07:33:53.979Z,73.60
2019-04-14T07:34:54.072Z,73.96
2019-04-14T07:35:54.332Z,72.48
2019-04-14T07:36:02.874Z,71.02
2019-04-14T07:37:04.252Z,71.14
2019-04-14T07:38:04.369Z,72.66
2019-04-14T07:39:04.521Z,72.91
2019-04-14T07:40:05.394Z,72.41
2019-04-14T07:41:06.296Z,73.62
2019-04-14T07:42:06.350Z,73.89
2019-04-14T07:43:07.146Z,73.78
2019-04-14T07:44:08.064Z,73.87
2019-04-14T07:45:08.910Z,73.60
2019-04-14T07:46:09.892Z,74.41
2019-04-14T07:47:10.777Z,73.17
2019-04-14T07:48:11.562Z,74.11
2019-04-14T07:49:12.348Z,73.25
2019-04-14T07:50:14.782Z,73.70
2019-04-14T07:51:12.327Z,72.71
2019-04-14T07:52:14.240Z,72.04
2019-04-14T07:53:15.077Z,69.64
2019-04-14T07:54:15.129Z,71.44
2019-04-14T07:55:15.147Z,70.57
2019-04-14T07:56:16.123Z,70.23
2019-04-14T07:57:17.020Z,70.75
2019-04-14T07:58:17.906Z,69.84
2019-04-14T07:59:18.074Z,68.83
2019-04-14T08:00:18.976Z,71.19
2019-04-14T08:01:19.886Z,69.94
2019-04-14T08:02:20.735Z,69.36
2019-04-14T08:03:21.495Z,69.68
2019-04-14T08:04:22.471Z,69.05
2019-04-14T08:05:23.337Z,69.02
2019-04-14T08:06:24.316Z,69.63
2019-04-14T08:07:25.090Z,70.06
2019-04-14T08:08:25.979Z,70.49
2019-04-14T08:09:26.021Z,71.83
2019-04-14T08:10:25.237Z,71.88
2019-04-14T08:11:26.335Z,72.81
2019-04-14T08:12:27.264Z,72.04
2019-04-14T08:13:28.227Z,71.20
2019-04-14T08:14:28.478Z,70.59
2019-04-14T08:15:28.718Z,68.59
2019-04-14T08:16:29.618Z,68.41
2019-04-14T08:17:30.591Z,68.48
2019-04-14T08:18:31.511Z,69.14
2019-04-14T08:19:32.341Z,67.71
2019-04-14T08:20:33.119Z,68.06
2019-04-14T08:20:43.256Z,68.53
2019-04-14T08:21:45.103Z,68.20
2019-04-14T08:22:45.751Z,66.49
2019-04-14T08:23:46.658Z,66.31
2019-04-14T08:24:47.508Z,66.80
2019-04-14T08:25:48.346Z,65.35
2019-04-14T08:26:49.275Z,65.19
2019-04-14T08:27:49.045Z,65.95
2019-04-14T08:28:50.780Z,65.54
2019-04-14T08:29:51.635Z,66.21
2019-04-14T08:30:52.546Z,65.62
2019-04-14T08:31:52.599Z,65.64
2019-04-14T08:32:53.276Z,63.63
2019-04-14T08:33:54.274Z,63.07
2019-04-14T08:34:55.143Z,63.09
2019-04-14T08:35:55.812Z,63.46
2019-04-14T08:36:56.675Z,65.04
2019-04-14T08:37:57.447Z,66.26
2019-04-14T08:38:58.315Z,66.44
2019-04-14T08:39:58.377Z,65.27
2019-04-14T08:40:59.201Z,66.33
2019-04-14T08:42:00.120Z,66.21
2019-04-14T08:43:00.387Z,64.23
2019-04-14T08:44:01.275Z,64.51
2019-04-14T08:45:02.107Z,66.05
2019-04-14T08:46:02.997Z,66.83
2019-04-14T08:47:03.958Z,67.41
2019-04-14T08:48:04.842Z,68.51
2019-04-14T08:49:05.670Z,67.64
2019-04-14T08:50:06.486Z,67.24
2019-04-14T08:51:06.659Z,66.65
2019-04-14T08:52:07.547Z,65.42
2019-04-14T08:53:07.747Z,65.05
2019-04-14T08:54:08.740Z,64.51
2019-04-14T08:55:09.669Z,64.05
2019-04-14T08:56:09.723Z,63.47
2019-04-14T08:57:09.966Z,61.65
2019-04-14T08:58:10.010Z,63.20
2019-04-14T08:59:10.870Z,63.51
2019-04-14T09:00:11.826Z,64.83
2019-04-14T09:01:11.874Z,63.80
2019-04-14T09:02:12.612Z,63.29
2019-04-14T09:03:12.654Z,64.80
2019-04-14T09:04:12.899Z,66.45
2019-04-14T09:05:13.876Z,63.92
2019-04-14T09:05:22.967Z,64.59
2019-04-14T09:06:24.783Z,64.48
2019-04-14T09:07:25.514Z,63.35
2019-04-14T09:08:26.237Z,65.49
2019-04-14T09:09:27.032Z,65.66
2019-04-14T09:10:27.871Z,65.92
2019-04-14T09:11:28.871Z,65.92
2019-04-14T09:12:29.703Z,65.29
2019-04-14T09:13:30.427Z,64.02
2019-04-14T09:14:30.507Z,64.75
2019-04-14T09:15:31.300Z,62.99
2019-04-14T09:16:32.033Z,64.04
2019-04-14T09:17:32.233Z,64.16
2019-04-14T09:18:33.194Z,62.96
2019-04-14T09:19:33.905Z,64.10
2019-04-14T09:20:34.717Z,64.36
2019-04-14T09:21:35.390Z,63.67
2019-04-14T09:22:36.240Z,62.97
2019-04-14T09:23:36.442Z,63.24
2019-04-14T09:24:35.439Z,62.73
2019-04-14T09:25:36.460Z,65.24
2019-04-14T09:26:36.599Z,63.49
2019-04-14T09:27:37.505Z,61.67
2019-04-14T09:28:38.282Z,62.05
2019-04-14T09:29:39.274Z,62.50
2019-04-14T09:30:38.540Z,62.56
2019-04-14T09:31:39.670Z,62.61
2019-04-14T09:32:40.570Z,62.07
2019-04-14T09:33:40.798Z,62.86
2019-04-14T09:34:41.255Z,61.52
2019-04-14T09:35:41.463Z,61.22
2019-04-14T09:36:42.331Z,59.96
2019-04-14T09:37:43.214Z,62.49
2019-04-14T09:38:43.296Z,62.35
2019-04-14T09:39:43.322Z,61.83
2019-04-14T09:40:42.530Z,61.91
2019-04-14T09:41:43.158Z,64.20
2019-04-14T09:42:44.997Z,64.41
2019-04-14T09:43:44.717Z,65.59
2019-04-14T09:44:45.795Z,62.50
2019-04-14T09:45:46.632Z,64.04
2019-04-14T09:46:46.140Z,62.01
2019-04-14T09:47:49.813Z,61.18
2019-04-14T09:48:46.599Z,59.83
2019-04-14T09:49:47.482Z,60.74
2019-04-14T09:50:47.539Z,59.73
2019-04-14T09:51:48.137Z,58.08
2019-04-14T09:52:48.493Z,59.27
2019-04-14T09:53:49.779Z,58.22
2019-04-14T09:54:49.785Z,57.45
2019-04-14T09:55:49.868Z,59.02
2019-04-14T09:56:50.270Z,56.38
2019-04-14T09:57:11.022Z,57.18
2019-04-14T09:58:12.027Z,57.32
2019-04-14T09:59:12.311Z,58.01
2019-04-14T10:00:12.273Z,58.60
2019-04-14T10:01:14.736Z,58.38
2019-04-14T10:02:14.213Z,57.83
2019-04-14T10:03:13.293Z,58.80
2019-04-14T10:04:14.671Z,58.05
2019-04-14T10:05:15.392Z,56.86
2019-04-14T10:06:14.799Z,59.16
2019-04-14T10:07:14.831Z,58.85
2019-04-14T10:08:15.188Z,56.43
2019-04-14T10:09:15.254Z,58.11
2019-04-14T10:10:15.602Z,58.62
2019-04-14T10:11:17.443Z,58.43
2019-04-14T10:12:17.832Z,58.61
2019-04-14T10:13:18.824Z,58.11
2019-04-14T10:14:19.387Z,56.69
2019-04-14T10:15:19.605Z,56.68
2019-04-14T10:16:20.543Z,57.48
2019-04-14T10:17:21.181Z,56.14
2019-04-14T10:18:21.255Z,55.45
2019-04-14T10:19:22.181Z,56.09
2019-04-14T10:20:23.135Z,55.00
2019-04-14T10:21:23.140Z,55.95
2019-04-14T10:22:33.414Z,54.84
2019-04-14T10:23:24.105Z,57.00
2019-04-14T10:24:24.316Z,55.36
2019-04-14T10:25:24.492Z,56.87
2019-04-14T10:26:25.423Z,54.81
2019-04-14T10:27:26.402Z,56.19
2019-04-14T10:28:26.433Z,56.66
2019-04-14T10:29:27.135Z,54.40
2019-04-14T10:30:27.227Z,56.46
2019-04-14T10:31:26.208Z,55.52
2019-04-14T10:32:27.976Z,55.48
2019-04-14T10:33:28.848Z,55.67
2019-04-14T10:34:28.864Z,53.54
2019-04-14T10:35:29.887Z,55.12
2019-04-14T10:36:30.840Z,54.77
2019-04-14T10:37:30.282Z,55.39
2019-04-14T10:38:31.291Z,56.37
2019-04-14T10:39:31.971Z,55.86
2019-04-14T10:40:32.972Z,55.32
2019-04-14T10:41:33.794Z,57.00
2019-04-14T10:42:34.626Z,56.80
2019-04-14T10:43:35.015Z,57.25
2019-04-14T10:44:34.965Z,54.81
2019-04-14T10:45:36.077Z,54.27
2019-04-14T10:46:36.829Z,54.87
2019-04-14T10:47:37.617Z,56.80
2019-04-14T10:48:38.375Z,56.61
2019-04-14T10:49:39.193Z,55.61
2019-04-14T10:50:39.990Z,56.47
2019-04-14T10:51:40.661Z,56.21
2019-04-14T10:51:49.824Z,55.60
2019-04-14T10:52:51.316Z,55.75
2019-04-14T10:53:51.358Z,56.85
2019-04-14T10:54:52.153Z,56.74
2019-04-14T10:55:52.038Z,54.43
2019-04-14T10:56:53.591Z,54.37
2019-04-14T10:57:57.203Z,53.88
2019-04-14T10:58:53.912Z,55.49
2019-04-14T10:59:55.809Z,54.49
2019-04-14T11:00:55.833Z,54.12
2019-04-14T11:01:59.016Z,54.48
2019-04-14T11:02:55.912Z,54.03
2019-04-14T11:03:56.894Z,53.42
2019-04-14T11:04:58.790Z,54.56
2019-04-14T11:05:59.050Z,51.59
2019-04-14T11:06:59.999Z,53.37
2019-04-14T11:08:00.882Z,53.11
2019-04-14T11:09:00.910Z,53.55
2019-04-14T11:10:01.801Z,52.20
2019-04-14T11:11:01.869Z,52.75
2019-04-14T11:12:01.916Z,51.51
2019-04-14T11:13:02.164Z,51.67
2019-04-14T11:14:03.039Z,50.78
2019-04-14T11:15:02.025Z,51.04
2019-04-14T11:16:03.432Z,51.56
2019-04-14T11:17:05.034Z,52.99
2019-04-14T11:18:05.127Z,52.50
2019-04-14T11:19:06.146Z,53.18
2019-04-14T11:20:07.494Z,53.90
2019-04-14T11:21:05.489Z,55.42
2019-04-14T11:22:07.422Z,55.35
2019-04-14T11:23:06.468Z,52.80
2019-04-14T11:24:07.082Z,54.27
2019-04-14T11:25:10.537Z,53.87
2019-04-14T11:26:07.695Z,50.78
2019-04-14T11:27:10.696Z,52.64
2019-04-14T11:28:08.794Z,53.79
2019-04-14T11:29:08.922Z,51.90
2019-04-14T11:30:10.034Z,52.34
2019-04-14T11:31:09.417Z,51.28
2019-04-14T11:32:09.618Z,50.97
2019-04-14T11:33:09.706Z,51.64
2019-04-14T11:34:11.634Z,52.82
2019-04-14T11:35:11.897Z,48.89
2019-04-14T11:36:10.974Z,47.39
2019-04-14T11:37:12.026Z,49.41
2019-04-14T11:38:12.967Z,49.30
2019-04-14T11:39:12.980Z,49.53
2019-04-14T11:40:13.812Z,48.63
2019-04-14T11:41:14.577Z,49.47
2019-04-14T11:42:15.310Z,50.53
2019-04-14T11:43:16.215Z,53.11
2019-04-14T11:44:16.183Z,50.80
2019-04-14T11:45:17.037Z,50.40
2019-04-14T11:46:17.844Z,50.70
2019-04-14T11:47:18.145Z,50.13
2019-04-14T11:47:31.516Z,49.34
2019-04-14T11:48:36.857Z,49.14
2019-04-14T11:49:29.682Z,49.82
2019-04-14T11:50:30.616Z,47.75
2019-04-14T11:51:31.438Z,48.40
2019-04-14T11:52:35.665Z,48.29
2019-04-14T11:53:33.259Z,49.30
2019-04-14T11:54:35.205Z,49.26
2019-04-14T11:55:36.020Z,48.28
2019-04-14T11:56:36.805Z,46.94
2019-04-14T11:57:37.704Z,49.00
2019-04-14T11:58:38.529Z,49.55
2019-04-14T11:59:39.328Z,48.15
2019-04-14T12:00:40.163Z,48.13
2019-04-14T12:01:40.892Z,47.64
2019-04-14T12:02:41.815Z,48.75
2019-04-14T12:03:41.888Z,49.83
2019-04-14T12:04:42.045Z,50.88
2019-04-14T12:05:42.880Z,49.76
2019-04-14T12:06:43.742Z,49.99
2019-04-14T12:07:44.603Z,49.34
2019-04-14T12:08:45.800Z,49.58
2019-04-14T12:09:45.494Z,48.20
2019-04-14T12:10:47.311Z,50.57
2019-04-14T12:11:48.263Z,50.10
2019-04-14T12:12:48.756Z,50.12
2019-04-14T12:13:48.783Z,48.52
2019-04-14T12:14:49.613Z,46.49
2019-04-14T12:15:50.394Z,48.18
2019-04-14T12:16:51.232Z,49.84
2019-04-14T12:17:52.102Z,49.71
2019-04-14T12:18:52.339Z,48.76
2019-04-14T12:19:51.463Z,47.12
2019-04-14T12:20:52.476Z,47.38
2019-04-14T12:21:54.179Z,48.82
2019-04-14T12:22:54.153Z,49.92
2019-04-14T12:23:54.918Z,49.85
2019-04-14T12:24:55.641Z,49.14
2019-04-14T12:26:05.375Z,49.44
2019-04-14T12:26:55.737Z,50.43
2019-04-14T12:27:58.001Z,50.42
2019-04-14T12:28:59.179Z,50.55
2019-04-14T12:29:58.896Z,48.72
2019-04-14T12:30:59.776Z,47.74
2019-04-14T12:31:59.722Z,47.74
2019-04-14T12:32:59.935Z,47.96
2019-04-14T12:34:01.777Z,48.01
2019-04-14T12:35:02.599Z,48.56
2019-04-14T12:36:03.491Z,49.01
2019-04-14T12:40:23.373Z,50.43
2019-04-14T12:41:25.201Z,50.43
2019-04-14T12:42:26.172Z,49.47
2019-04-14T12:43:25.794Z,49.21
2019-04-14T12:44:27.695Z,49.82
2019-04-14T12:45:28.214Z,49.00
2019-04-14T12:46:28.223Z,48.50
2019-04-14T12:47:28.925Z,48.42
2019-04-14T12:48:29.794Z,46.98
2019-04-14T12:49:29.388Z,46.92
2019-04-14T12:50:30.719Z,46.45
2019-04-14T12:51:31.624Z,48.31
2019-04-14T12:52:32.508Z,48.51
2019-04-14T12:53:33.160Z,49.11
2019-04-14T12:54:33.255Z,49.26
2019-04-14T12:55:34.277Z,48.98
2019-04-14T12:56:33.263Z,48.65
2019-04-14T12:57:33.483Z,49.05
2019-04-14T12:58:34.807Z,48.88
2019-04-14T12:59:35.719Z,48.25
2019-04-14T13:00:34.837Z,47.92